Time;durP1;ratioP1;P1;durP2;ratioP2;P2;SDS_P1;SDS_P2;PMS_P1;PMS_P2;Temp;Humidity;BMP_temperature;BMP_pressure;BME280_temperature;BME280_humidity;BME280_pressure;Samples;Min_cycle;Max_cycle;Signal;HPM_P1;HPM_P2
2022/10/26 02:55:32;;;;;;;20.15;4.35;;;;;;;13.07;100.00;99767.56;4924071;29;20095;-96
2022/10/26 02:58:11;;;;;;;19.65;5.18;;;;;;;12.85;100.00;99774.16;4919453;29;20052;-96
2022/10/26 03:00:38;;;;;;;25.90;4.25;;;;;;;13.18;100.00;99806.31;4918322;29;20059;-96
2022/10/26 03:03:05;;;;;;;17.13;5.07;;;;;;;13.01;100.00;99770.56;4917555;29;20078;-95
2022/10/26 03:05:32;;;;;;;14.90;4.57;;;;;;;13.28;100.00;99794.28;4917725;29;20063;-95
2022/10/26 03:07:59;;;;;;;13.32;3.50;;;;;;;13.07;100.00;99776.28;4917994;29;20119;-94
2022/10/26 03:10:26;;;;;;;20.10;4.57;;;;;;;13.23;100.00;99815.59;4917568;29;20063;-96
2022/10/26 03:12:53;;;;;;;22.30;5.43;;;;;;;13.32;100.00;99808.09;4914696;29;20487;-94
2022/10/26 03:15:20;;;;;;;16.00;3.78;;;;;;;13.31;100.00;99812.50;4922725;29;20472;-93
2022/10/26 03:17:47;;;;;;;20.50;4.28;;;;;;;13.29;100.00;99770.50;4923424;29;20479;-92
2022/10/26 03:20:18;;;;;;;21.90;4.95;;;;;;;13.11;100.00;99758.53;4917521;29;20064;-92
2022/10/26 03:22:47;;;;;;;19.10;4.40;;;;;;;12.97;100.00;99720.00;4914694;29;20373;-93
2022/10/26 03:25:14;;;;;;;18.05;3.83;;;;;;;12.98;100.00;99721.69;4914406;29;20056;-92
2022/10/26 03:27:41;;;;;;;30.80;5.18;;;;;;;13.15;100.00;99756.56;4915841;29;20514;-93
2022/10/26 03:30:09;;;;;;;23.80;5.35;;;;;;;12.98;100.00;99724.31;4924970;29;20506;-93
2022/10/26 03:32:37;;;;;;;19.27;3.53;;;;;;;13.09;100.00;99736.78;4908250;29;20052;-93
2022/10/26 03:35:11;;;;;;;24.45;5.80;;;;;;;12.99;100.00;99707.59;4919327;29;20060;-93
2022/10/26 03:37:38;;;;;;;18.10;4.57;;;;;;;12.95;100.00;99719.25;4924411;29;20040;-93
2022/10/26 03:40:05;;;;;;;26.38;6.18;;;;;;;13.07;100.00;99725.53;4915541;29;20063;-93
2022/10/26 03:42:36;;;;;;;18.45;4.32;;;;;;;12.97;100.00;99706.84;4901298;29;20055;-94
2022/10/26 03:45:03;;;;;;;28.92;4.97;;;;;;;13.19;100.00;99740.50;4916237;29;20052;-94
2022/10/26 03:47:30;;;;;;;30.23;5.55;;;;;;;13.00;100.00;99700.56;4928884;29;20060;-93
2022/10/26 03:49:57;;;;;;;22.50;6.18;;;;;;;13.03;100.00;99695.09;4917227;29;20128;-94
2022/10/26 03:52:24;;;;;;;29.65;4.70;;;;;;;13.11;100.00;99687.59;4916442;29;20062;-93
2022/10/26 03:54:51;;;;;;;22.63;5.32;;;;;;;13.13;100.00;99695.38;4926954;29;20059;-94
2022/10/26 03:57:17;;;;;;;23.55;5.13;;;;;;;13.10;100.00;99673.59;4928199;29;20447;-94
2022/10/26 03:59:44;;;;;;;30.25;5.88;;;;;;;13.12;100.00;99705.03;4904411;29;20055;-93
2022/10/26 04:02:11;;;;;;;23.42;5.25;;;;;;;12.89;100.00;99665.31;4915085;29;20059;-93
2022/10/26 04:04:37;;;;;;;24.17;5.30;;;;;;;12.95;100.00;99665.88;4920502;29;20108;-94
2022/10/26 04:07:04;;;;;;;19.35;4.57;;;;;;;12.87;100.00;99640.94;4932068;29;20391;-94
2022/10/26 04:09:31;;;;;;;30.88;6.80;;;;;;;12.97;100.00;99658.72;4921099;29;20136;-94
2022/10/26 04:11:58;;;;;;;28.00;5.22;;;;;;;13.08;100.00;99682.50;4917147;29;20056;-95
2022/10/26 04:14:24;;;;;;;22.77;4.82;;;;;;;12.93;100.00;99655.47;4917382;29;20055;-95
2022/10/26 04:16:51;;;;;;;25.33;4.68;;;;;;;13.05;100.00;99638.03;4917251;29;20083;-95
2022/10/26 04:19:18;;;;;;;31.05;4.95;;;;;;;12.94;100.00;99627.38;4917357;29;20056;-96
2022/10/26 04:21:45;;;;;;;18.75;4.40;;;;;;;12.98;100.00;99631.50;4917466;29;20056;-95
2022/10/26 04:24:12;;;;;;;26.80;5.40;;;;;;;12.85;100.00;99628.81;4917355;29;20067;-96
2022/10/26 04:26:38;;;;;;;25.15;4.63;;;;;;;12.87;100.00;99661.09;4917704;29;20052;-95
2022/10/26 04:29:06;;;;;;;20.38;4.32;;;;;;;12.90;100.00;99627.59;4916836;29;20095;-94
2022/10/26 04:31:33;;;;;;;21.33;4.50;;;;;;;12.90;100.00;99619.69;4917005;29;20112;-95
2022/10/26 04:34:00;;;;;;;24.02;4.30;;;;;;;13.07;100.00;99623.88;4919467;29;20087;-96
2022/10/26 04:36:26;;;;;;;23.52;5.10;;;;;;;13.03;100.00;99617.13;4921634;29;20051;-96
2022/10/26 04:38:53;;;;;;;25.92;4.90;;;;;;;13.17;100.00;99631.97;4921130;29;20079;-95
2022/10/26 04:41:20;;;;;;;23.77;5.18;;;;;;;12.59;100.00;99570.97;4921105;29;20419;-95
2022/10/26 04:43:46;;;;;;;24.23;6.82;;;;;;;12.73;100.00;99584.03;4921675;29;20104;-95
2022/10/26 04:46:13;;;;;;;25.27;5.25;;;;;;;12.99;100.00;99612.19;4920752;29;20052;-95
2022/10/26 04:48:42;;;;;;;30.48;6.13;;;;;;;12.74;100.00;99592.75;4920438;29;20052;-95
2022/10/26 04:51:09;;;;;;;29.58;5.45;;;;;;;12.78;100.00;99591.59;4920694;29;20107;-95
2022/10/26 04:53:35;;;;;;;28.27;5.43;;;;;;;12.78;100.00;99588.16;4920710;29;20579;-95
2022/10/26 04:56:02;;;;;;;28.17;5.65;;;;;;;12.82;100.00;99574.72;4921051;29;20538;-95
2022/10/26 04:58:29;;;;;;;31.80;5.43;;;;;;;12.70;100.00;99575.53;4920634;29;20044;-94
2022/10/26 05:00:56;;;;;;;26.63;5.13;;;;;;;12.86;100.00;99581.44;4920137;29;20052;-94
2022/10/26 05:03:23;;;;;;;31.20;6.40;;;;;;;12.78;100.00;99580.25;4920779;29;20072;-95
2022/10/26 05:05:50;;;;;;;29.10;4.70;;;;;;;12.61;100.00;99574.34;4920043;29;20052;-95
2022/10/26 05:08:16;;;;;;;26.77;5.40;;;;;;;12.89;100.00;99606.66;4919361;29;20055;-94
2022/10/26 05:10:48;;;;;;;21.98;4.47;;;;;;;12.99;100.00;99560.47;4919833;29;20052;-95
2022/10/26 05:13:15;;;;;;;25.77;5.47;;;;;;;12.68;100.00;99553.78;4919573;29;20450;-95
2022/10/26 05:15:42;;;;;;;30.75;5.40;;;;;;;12.58;100.00;99560.56;4918714;29;20083;-91
2022/10/26 05:18:09;;;;;;;30.58;5.47;;;;;;;12.88;100.00;99586.59;4918382;29;20459;-94
2022/10/26 05:20:36;;;;;;;18.55;4.15;;;;;;;12.68;100.00;99553.78;4917955;29;20059;-93
2022/10/26 05:23:09;;;;;;;28.33;4.93;;;;;;;12.81;100.00;99538.88;4916649;29;20062;-91
2022/10/26 05:25:37;;;;;;;18.98;4.32;;;;;;;12.88;100.00;99576.09;4916055;29;20071;-91
2022/10/26 05:28:06;;;;;;;24.45;4.85;;;;;;;12.85;100.00;99565.78;4915645;29;20048;-91
2022/10/26 05:30:33;;;;;;;26.67;5.47;;;;;;;12.66;100.00;99561.75;4916583;29;20443;-91
2022/10/26 05:33:02;;;;;;;28.58;4.53;;;;;;;12.72;100.00;99560.50;4913735;29;20056;-90
2022/10/26 05:35:29;;;;;;;26.65;5.15;;;;;;;12.70;100.00;99563.22;4930274;29;20048;-90
2022/10/26 05:37:57;;;;;;;25.73;4.40;;;;;;;12.53;100.00;99514.41;4935048;29;20052;-87
2022/10/26 05:40:29;;;;;;;26.20;5.53;;;;;;;12.72;100.00;99548.19;4919659;29;20049;-86
2022/10/26 05:43:09;;;;;;;23.83;4.45;;;;;;;12.54;100.00;99505.59;4923460;29;20056;-88
2022/10/26 05:45:50;;;;;;;25.48;5.05;;;;;;;12.90;100.00;99553.19;4934126;29;20056;-86
2022/10/26 05:48:31;;;;;;;26.70;5.45;;;;;;;12.70;100.00;99544.00;4934988;29;20028;-88
2022/10/26 05:51:13;;;;;;;19.80;4.97;;;;;;;12.85;100.00;99553.47;4932893;29;20044;-88
2022/10/26 05:53:44;;;;;;;17.38;3.90;;;;;;;12.90;100.00;99501.47;4916682;29;20048;-87
2022/10/26 05:56:34;;;;;;;22.17;5.13;;;;;;;12.62;100.00;99486.72;4929672;29;20068;-87
2022/10/26 05:59:02;;;;;;;32.97;5.95;;;;;;;12.65;100.00;99483.06;4923855;29;20059;-88
2022/10/26 06:01:53;;;;;;;23.92;5.07;;;;;;;12.94;100.00;99540.69;4928046;29;20483;-88
2022/10/26 06:04:37;;;;;;;27.00;5.45;;;;;;;12.89;100.00;99520.84;4928999;29;20052;-86
2022/10/26 06:07:21;;;;;;;28.20;5.60;;;;;;;12.87;100.00;99511.34;4931523;29;20063;-89
2022/10/26 06:10:03;;;;;;;32.20;6.63;;;;;;;13.05;100.00;99514.53;4933746;29;20115;-89
2022/10/26 06:12:39;;;;;;;31.45;5.75;;;;;;;12.97;100.00;99474.81;4936490;29;20052;-87
2022/10/26 06:15:21;;;;;;;32.13;5.95;;;;;;;13.06;100.00;99505.72;4928493;29;20107;-91
2022/10/26 06:18:07;;;;;;;41.28;6.85;;;;;;;13.01;100.00;99485.00;4926885;29;20065;-90
2022/10/26 06:21:18;;;;;;;27.63;6.20;;;;;;;13.02;100.00;99499.00;4932188;29;20063;-88
2022/10/26 06:24:11;;;;;;;28.27;6.43;;;;;;;13.14;100.00;99489.41;4924985;29;20052;-89
2022/10/26 06:27:10;;;;;;;25.10;5.95;;;;;;;13.06;100.00;99506.53;4929860;29;20054;-89
2022/10/26 06:30:11;;;;;;;24.05;4.43;;;;;;;13.15;100.00;99494.56;4931355;29;20056;-91
2022/10/26 06:32:54;;;;;;;25.40;5.28;;;;;;;13.14;100.00;99473.66;4937234;29;20048;-89
2022/10/26 06:35:47;;;;;;;31.57;7.20;;;;;;;13.11;100.00;99474.72;4938589;29;20117;-89
2022/10/26 06:38:30;;;;;;;25.90;6.40;;;;;;;13.03;100.00;99483.13;4929115;29;20497;-90
2022/10/26 06:40:58;;;;;;;25.25;5.70;;;;;;;13.15;100.00;99483.22;4927494;29;20071;-89
2022/10/26 06:43:29;;;;;;;29.90;5.10;;;;;;;13.27;100.00;99483.22;4924516;29;20067;-88
2022/10/26 06:46:34;;;;;;;23.60;5.70;;;;;;;13.36;100.00;99483.59;4914549;29;20139;-88
2022/10/26 06:49:40;;;;;;;20.23;5.03;;;;;;;13.24;100.00;99466.81;4912660;29;20059;-88
2022/10/26 06:52:19;;;;;;;25.90;6.90;;;;;;;13.37;100.00;99464.22;4897342;29;20059;-88
2022/10/26 06:54:50;;;;;;;20.33;5.55;;;;;;;13.34;100.00;99460.03;4923833;29;20059;-88
2022/10/26 06:57:23;;;;;;;31.90;6.15;;;;;;;13.36;100.00;99452.88;4924139;29;20056;-89
2022/10/26 06:59:59;;;;;;;29.33;7.15;;;;;;;13.25;100.00;99437.81;4937633;29;20058;-89
2022/10/26 07:02:27;;;;;;;29.08;7.15;;;;;;;13.09;100.00;99438.03;4910491;29;20052;-89
2022/10/26 07:04:54;;;;;;;34.70;6.78;;;;;;;13.22;100.00;99461.66;4932001;29;20062;-87
2022/10/26 07:07:26;;;;;;;34.60;7.18;;;;;;;12.97;100.00;99433.63;4911674;29;20308;-89
2022/10/26 07:09:53;;;;;;;24.90;5.68;;;;;;;13.25;100.00;99443.06;4927239;29;20087;-90
2022/10/26 07:12:24;;;;;;;37.47;8.02;;;;;;;13.03;100.00;99401.69;4929204;29;20048;-90
2022/10/26 07:15:07;;;;;;;38.70;7.15;;;;;;;13.29;100.00;99444.53;4931567;29;20054;-90
2022/10/26 07:17:48;;;;;;;35.40;6.43;;;;;;;13.09;100.00;99401.25;4916468;29;20059;-89
2022/10/26 07:20:20;;;;;;;25.80;6.55;;;;;;;13.38;100.00;99435.19;4933165;29;21110;-89
2022/10/26 07:22:54;;;;;;;28.02;6.43;;;;;;;13.36;100.00;99392.41;4929065;29;20080;-91
2022/10/26 07:25:37;;;;;;;33.20;7.30;;;;;;;13.29;100.00;99410.34;4931979;29;20054;-91
2022/10/26 07:28:18;;;;;;;27.45;7.03;;;;;;;13.58;100.00;99431.19;4933104;29;20103;-91
2022/10/26 07:30:59;;;;;;;36.22;7.78;;;;;;;13.28;100.00;99418.38;4932882;29;20036;-90
2022/10/26 07:33:41;;;;;;;37.10;8.57;;;;;;;13.18;100.00;99385.78;4927780;29;20155;-91
2022/10/26 07:36:27;;;;;;;32.90;6.67;;;;;;;13.67;100.00;99424.44;4933738;29;20079;-91
2022/10/26 07:39:08;;;;;;;36.15;7.90;;;;;;;13.36;100.00;99397.66;4929764;29;20062;-91
2022/10/26 07:41:48;;;;;;;21.80;6.70;;;;;;;13.41;100.00;99413.13;4930177;29;20048;-89
2022/10/26 07:44:16;;;;;;;23.90;6.03;;;;;;;13.56;100.00;99400.66;4932555;29;20059;-89
2022/10/26 07:46:44;;;;;;;29.10;6.65;;;;;;;13.34;100.00;99396.94;4911797;29;20056;-88
2022/10/26 07:49:11;;;;;;;25.90;6.60;;;;;;;13.39;100.00;99394.81;4925365;29;20063;-88
2022/10/26 07:51:43;;;;;;;31.77;6.68;;;;;;;13.51;100.00;99416.78;4920366;29;20538;-89
2022/10/26 07:54:13;;;;;;;43.67;9.13;;;;;;;13.17;100.00;99373.59;4933562;29;20553;-89
2022/10/26 07:56:40;;;;;;;29.15;6.95;;;;;;;13.58;100.00;99420.66;4931416;29;20086;-89
2022/10/26 07:59:11;;;;;;;31.35;7.55;;;;;;;13.08;100.00;99333.88;4929774;29;20048;-90
2022/10/26 08:01:42;;;;;;;29.45;7.50;;;;;;;13.34;100.00;99362.75;4930111;29;20070;-90
2022/10/26 08:04:23;;;;;;;31.73;7.53;;;;;;;13.09;100.00;99338.19;4921080;29;20060;-88
2022/10/26 08:06:52;;;;;;;35.85;8.23;;;;;;;13.29;100.00;99360.41;4928145;29;20043;-91
2022/10/26 08:09:32;;;;;;;33.17;8.15;;;;;;;13.76;100.00;99394.81;4935758;29;20059;-91
2022/10/26 08:12:09;;;;;;;35.85;10.15;;;;;;;13.43;100.00;99353.38;4934139;29;20063;-89
2022/10/26 08:14:42;;;;;;;36.55;8.75;;;;;;;13.22;100.00;99332.88;4937340;29;20067;-92
2022/10/26 08:17:23;;;;;;;49.10;10.00;;;;;;;12.90;100.00;99280.81;4923604;29;20040;-91
2022/10/26 08:20:05;;;;;;;39.60;9.07;;;;;;;13.46;100.00;99369.78;4937867;29;20052;-91
2022/10/26 08:22:46;;;;;;;29.55;8.15;;;;;;;13.40;100.00;99304.50;4935871;29;20028;-91
2022/10/26 08:25:29;;;;;;;38.05;9.40;;;;;;;13.40;100.00;99345.69;4933939;29;20108;-93
2022/10/26 08:28:10;;;;;;;52.60;10.93;;;;;;;13.52;100.00;99365.03;4938839;29;20055;-91
2022/10/26 08:30:51;;;;;;;41.15;8.52;;;;;;;13.50;100.00;99325.69;4937029;29;20035;-90
2022/10/26 08:33:33;;;;;;;36.08;8.43;;;;;;;13.51;100.00;99316.00;4931334;29;20055;-89
2022/10/26 08:36:18;;;;;;;45.20;9.95;;;;;;;13.08;100.00;99252.44;4935782;29;20047;-90
2022/10/26 08:38:59;;;;;;;31.30;7.78;;;;;;;13.46;100.00;99306.66;4929678;29;20052;-91
2022/10/26 08:41:43;;;;;;;38.35;9.35;;;;;;;13.14;100.00;99259.03;4933625;29;20048;-89
2022/10/26 08:44:59;;;;;;;43.28;7.95;;;;;;;14.01;100.00;99377.25;4933676;29;20059;-89
2022/10/26 08:47:46;;;;;;;37.47;8.70;;;;;;;14.00;100.00;99384.28;4913318;29;20487;-90
2022/10/26 08:50:30;;;;;;;41.70;10.68;;;;;;;13.83;100.00;99334.72;4933317;29;20052;-88
2022/10/26 08:53:40;;;;;;;44.13;9.05;;;;;;;13.96;100.00;99372.31;4934352;29;20055;-91
2022/10/26 08:56:26;;;;;;;40.90;7.93;;;;;;;13.58;100.00;99378.59;4931934;29;20063;-90
2022/10/26 08:59:13;;;;;;;38.35;8.13;;;;;;;13.91;100.00;99361.28;4933572;29;20056;-90
2022/10/26 09:01:57;;;;;;;38.60;9.95;;;;;;;13.65;100.00;99345.63;4935623;29;20048;-87
2022/10/26 09:04:39;;;;;;;43.58;9.48;;;;;;;13.76;100.00;99344.00;4933985;29;20067;-90
2022/10/26 09:07:19;;;;;;;33.33;7.22;;;;;;;14.04;100.00;99363.84;4934006;29;20066;-89
2022/10/26 09:10:29;;;;;;;39.15;9.20;;;;;;;13.69;100.00;99312.06;4933909;29;20056;-89
2022/10/26 09:13:28;;;;;;;36.08;8.18;;;;;;;14.23;100.00;99358.06;4933650;29;20083;-90
2022/10/26 09:16:22;;;;;;;42.33;10.00;;;;;;;13.97;100.00;99352.09;4933458;29;20047;-90
2022/10/26 09:19:35;;;;;;;41.65;9.57;;;;;;;14.05;100.00;99313.72;4934023;29;20084;-90
2022/10/26 09:22:21;;;;;;;34.92;8.95;;;;;;;14.15;100.00;99345.50;4935609;29;20044;-90
2022/10/26 09:25:20;;;;;;;42.38;9.82;;;;;;;13.78;100.00;99281.59;4923261;29;20063;-90
2022/10/26 09:28:01;;;;;;;43.47;9.68;;;;;;;14.03;100.00;99341.97;4933981;29;20055;-90
2022/10/26 09:30:45;;;;;;;39.50;9.93;;;;;;;14.05;100.00;99303.22;4936889;29;20115;-91
2022/10/26 09:33:25;;;;;;;37.43;8.83;;;;;;;14.07;100.00;99305.72;4934469;29;20171;-90
2022/10/26 09:36:13;;;;;;;36.92;8.68;;;;;;;14.38;100.00;99327.97;4937610;29;20055;-92
2022/10/26 09:39:12;;;;;;;50.45;9.40;;;;;;;14.30;100.00;99300.53;4936237;29;20040;-91
2022/10/26 09:42:17;;;;;;;39.58;9.48;;;;;;;13.90;100.00;99295.63;4916486;29;20051;-90
2022/10/26 09:45:09;;;;;;;39.67;8.98;;;;;;;14.40;100.00;99304.97;4924741;29;20112;-91
2022/10/26 09:47:52;;;;;;;43.10;10.20;;;;;;;14.23;100.00;99261.50;4937588;29;20044;-94
2022/10/26 09:50:36;;;;;;;37.80;8.93;;;;;;;14.43;100.00;99280.22;4918932;29;20092;-92
2022/10/26 09:53:05;;;;;;;42.20;8.57;;;;;;;14.45;100.00;99291.47;4934540;29;20055;-88
2022/10/26 09:55:52;;;;;;;40.85;8.73;;;;;;;14.25;100.00;99285.06;4937971;29;20063;-93
2022/10/26 09:59:00;;;;;;;30.83;8.15;;;;;;;14.47;100.00;99299.25;4955974;29;20105;-93
2022/10/26 10:01:41;;;;;;;34.30;7.90;;;;;;;14.37;100.00;99289.41;4958419;29;20036;-93
2022/10/26 10:04:22;;;;;;;47.92;9.40;;;;;;;13.65;100.00;99186.97;4943533;29;20050;-94
2022/10/26 10:07:04;;;;;;;29.30;7.55;;;;;;;14.68;100.00;99313.44;4942869;29;20038;-94
2022/10/26 10:10:17;;;;;;;36.15;8.98;;;;;;;14.22;100.00;99238.78;4941030;29;20044;-93
2022/10/26 10:13:22;;;;;;;31.67;7.68;;;;;;;13.78;100.00;99197.44;4936574;29;20144;-91
2022/10/26 10:16:05;;;;;;;25.52;7.22;;;;;;;13.86;100.00;99224.84;4936449;29;20062;-93
2022/10/26 10:18:57;;;;;;;31.27;7.25;;;;;;;13.89;100.00;99236.06;4936250;29;20035;-93
2022/10/26 10:21:49;;;;;;;26.67;7.15;;;;;;;13.58;100.00;99177.88;4925219;29;20040;-92
2022/10/26 10:24:36;;;;;;;28.65;6.63;;;;;;;14.42;100.00;99323.28;4937208;29;20060;-93
2022/10/26 10:27:22;;;;;;;32.65;6.95;;;;;;;13.66;100.00;99215.78;4930409;29;20060;-91
2022/10/26 10:30:29;;;;;;;28.33;6.88;;;;;;;13.91;100.00;99249.94;4933362;29;20076;-90
2022/10/26 10:33:12;;;;;;;38.35;8.43;;;;;;;14.20;100.00;99253.84;4947381;29;20055;-93
2022/10/26 10:35:58;;;;;;;39.33;8.75;;;;;;;13.85;100.00;99211.78;4922983;29;20036;-92
2022/10/26 10:38:47;;;;;;;45.53;8.45;;;;;;;13.91;100.00;99200.78;4936572;29;20088;-93
2022/10/26 10:41:35;;;;;;;31.80;6.70;;;;;;;14.17;100.00;99217.22;4935903;29;20036;-91
2022/10/26 10:44:50;;;;;;;32.60;7.10;;;;;;;14.43;100.00;99327.63;4938002;29;20084;-93
2022/10/26 10:47:34;;;;;;;28.35;6.30;;;;;;;14.63;100.00;99315.59;4938024;29;20056;-93
2022/10/26 10:50:21;;;;;;;27.77;6.25;;;;;;;14.54;100.00;99334.69;4936737;29;20052;-93
2022/10/26 10:53:20;;;;;;;29.33;5.72;;;;;;;14.43;100.00;99346.06;4935992;29;20048;-92
2022/10/26 10:56:13;;;;;;;24.52;5.63;;;;;;;14.59;100.00;99387.91;4929434;29;20048;-92
2022/10/26 10:59:00;;;;;;;;;;;;;;;14.77;100.00;99397.03;4942573;29;20038;-93
2022/10/26 11:01:54;;;;;;;19.35;4.63;;;;;;;14.18;100.00;99332.09;4936992;29;19921;-92
2022/10/26 11:05:02;;;;;;;16.77;3.67;;;;;;;13.99;100.00;99282.63;4937511;29;20075;-93
2022/10/26 11:08:02;;;;;;;17.98;3.08;;;;;;;14.45;100.00;99394.16;4936885;29;20032;-92
2022/10/26 11:11:11;;;;;;;12.80;2.67;;;;;;;14.23;100.00;99300.97;4929259;29;20036;-93
2022/10/26 11:14:08;;;;;;;10.20;2.63;;;;;;;14.87;100.00;99367.34;4933444;29;20063;-93
2022/10/26 11:17:02;;;;;;;9.35;2.67;;;;;;;14.39;100.00;99324.34;4938568;29;20059;-92
2022/10/26 11:19:53;;;;;;;9.20;2.10;;;;;;;14.81;100.00;99379.19;4924342;29;20047;-93
2022/10/26 11:23:03;;;;;;;7.75;2.05;;;;;;;14.92;100.00;99373.91;4939187;29;20096;-94
2022/10/26 11:25:59;;;;;;;8.48;1.88;;;;;;;14.32;100.00;99312.59;4938140;29;20028;-94
2022/10/26 11:28:51;;;;;;;6.28;1.42;;;;;;;14.34;100.00;99286.16;4938559;29;20024;-94
2022/10/26 11:31:44;;;;;;;7.47;1.50;;;;;;;14.17;100.00;99219.03;4937941;29;20066;-93
2022/10/26 11:34:53;;;;;;;6.35;1.95;;;;;;;14.78;100.00;99301.22;4924198;29;20447;-93
2022/10/26 11:37:50;;;;;;;4.90;1.35;;;;;;;15.50;100.00;99336.03;4938612;29;20047;-93
2022/10/26 11:40:57;;;;;;;4.82;1.20;;;;;;;15.23;100.00;99333.75;4918453;29;20055;-95
2022/10/26 11:43:43;;;;;;;3.78;1.30;;;;;;;15.11;100.00;99315.34;4917320;29;20060;-94
2022/10/26 11:46:29;;;;;;;6.97;1.42;;;;;;;15.17;100.00;99346.50;4901629;29;20052;-95
2022/10/26 11:49:19;;;;;;;2.97;0.90;;;;;;;15.28;100.00;99348.28;4905526;29;20503;-94
2022/10/26 11:51:54;;;;;;;3.70;0.88;;;;;;;15.23;100.00;99355.72;4915959;29;20144;-94
2022/10/26 11:54:31;;;;;;;4.30;1.20;;;;;;;14.60;100.00;99295.56;4898882;29;20511;-94
2022/10/26 11:56:59;;;;;;;3.28;1.00;;;;;;;14.84;100.00;99307.81;4932911;29;20118;-94
2022/10/26 11:59:30;;;;;;;2.78;0.98;;;;;;;14.69;100.00;99262.41;4922451;29;20044;-94
2022/10/26 12:02:11;;;;;;;2.78;1.02;;;;;;;15.48;100.00;99333.50;4920366;29;20052;-94
2022/10/26 12:04:39;;;;;;;1.63;0.88;;;;;;;15.08;100.00;99269.94;4917114;29;20052;-95
2022/10/26 12:07:19;;;;;;;4.95;1.20;;;;;;;15.36;100.00;99298.38;4897327;29;20060;-95
2022/10/26 12:09:46;;;;;;;3.85;1.10;;;;;;;15.12;100.00;99260.81;4913208;29;20044;-94
2022/10/26 12:12:18;;;;;;;2.20;0.88;;;;;;;15.37;100.00;99315.06;4915825;29;20056;-96
2022/10/26 12:15:14;;;;;;;2.95;0.90;;;;;;;15.27;100.00;99242.94;4916407;29;20060;-95
2022/10/26 12:17:49;;;;;;;7.78;1.73;;;;;;;15.45;100.00;99293.34;4903042;29;20219;-95
2022/10/26 12:20:38;;;;;;;6.93;1.77;;;;;;;15.62;100.00;99292.81;4915489;29;20404;-93
2022/10/26 12:23:10;;;;;;;12.15;2.70;;;;;;;15.58;100.00;99275.53;4915933;29;20052;-94
2022/10/26 12:25:48;;;;;;;13.85;2.92;;;;;;;15.83;100.00;99289.41;4915590;29;20056;-93
2022/10/26 12:28:34;;;;;;;10.07;2.40;;;;;;;15.91;100.00;99279.06;4914303;29;20072;-92
2022/10/26 12:31:31;;;;;;;21.35;3.55;;;;;;;15.71;100.00;99280.69;4912322;29;20147;-90
2022/10/26 12:33:59;;;;;;;16.83;2.85;;;;;;;15.67;100.00;99261.63;4914509;29;20132;-92
2022/10/26 12:36:47;;;;;;;11.38;1.83;;;;;;;15.61;100.00;99274.47;4927741;29;20060;-92
2022/10/26 12:39:40;;;;;;;7.68;1.77;;;;;;;15.82;100.00;99279.81;4925718;29;20129;-92
2022/10/26 12:42:06;;;;;;;13.93;2.40;;;;;;;15.54;100.00;99274.13;4906961;29;20523;-93
2022/10/26 12:44:53;;;;;;;8.93;1.75;;;;;;;15.29;100.00;99273.47;4913869;29;20495;-93
2022/10/26 12:47:26;;;;;;;13.38;2.13;;;;;;;15.40;100.00;99290.25;4913118;29;20059;-92
2022/10/26 12:50:05;;;;;;;10.32;2.10;;;;;;;15.61;100.00;99291.13;4922793;29;20045;-92
2022/10/26 12:52:46;;;;;;;10.70;2.38;;;;;;;15.28;100.00;99292.91;4919429;29;20060;-92
2022/10/26 12:55:28;;;;;;;11.88;2.35;;;;;;;15.36;100.00;99284.38;4928369;29;20079;-92
2022/10/26 12:58:16;;;;;;;13.98;3.08;;;;;;;15.40;100.00;99304.25;4925991;29;20123;-92
2022/10/26 13:01:25;;;;;;;13.70;2.83;;;;;;;15.36;100.00;99279.09;4909002;29;20120;-92
2022/10/26 13:03:58;;;;;;;11.95;2.92;;;;;;;15.40;100.00;99288.44;4918848;29;20055;-93
2022/10/26 13:06:35;;;;;;;12.15;2.35;;;;;;;15.61;100.00;99292.94;4916894;29;20450;-93
2022/10/26 13:09:19;;;;;;;22.35;3.53;;;;;;;15.35;100.00;99275.63;4915334;29;20546;-93
2022/10/26 13:11:54;;;;;;;19.38;2.80;;;;;;;15.23;100.00;99288.94;4901209;29;20056;-91
2022/10/26 13:14:52;;;;;;;12.10;2.72;;;;;;;15.39;100.00;99318.41;4922168;29;20048;-92
2022/10/26 13:17:26;;;;;;;18.23;3.22;;;;;;;14.76;100.00;99268.03;4922059;29;20068;-90
2022/10/26 13:19:59;;;;;;;15.48;3.28;;;;;;;15.29;100.00;99299.03;4917051;29;20479;-92
2022/10/26 13:22:27;;;;;;;13.27;2.83;;;;;;;15.24;100.00;99309.91;4917941;29;20056;-92
2022/10/26 13:25:00;;;;;;;15.93;3.40;;;;;;;14.98;100.00;99288.28;4918298;29;20481;-91
2022/10/26 13:27:33;;;;;;;15.98;3.47;;;;;;;15.51;100.00;99330.63;4914958;29;20056;-92
2022/10/26 13:30:03;;;;;;;;;;;;;;;15.36;100.00;99295.75;4916000;29;20060;-92
2022/10/26 13:32:34;;;;;;;17.63;3.55;;;;;;;15.48;100.00;99338.78;4916158;29;20368;-92
2022/10/26 13:35:03;;;;;;;14.00;3.42;;;;;;;15.22;100.00;99325.03;4915857;29;20056;-91
2022/10/26 13:37:32;;;;;;;13.98;3.42;;;;;;;15.16;100.00;99309.72;4917180;29;20139;-92
2022/10/26 13:40:03;;;;;;;15.82;3.85;;;;;;;15.28;100.00;99318.41;4923206;29;20071;-92
2022/10/26 13:42:43;;;;;;;22.10;4.03;;;;;;;14.90;100.00;99291.50;4917557;29;20051;-92
2022/10/26 13:45:33;;;;;;;17.52;3.13;;;;;;;14.80;100.00;99264.19;4915183;29;20044;-92
2022/10/26 13:48:07;;;;;;;18.45;4.22;;;;;;;14.88;100.00;99289.97;4920591;29;20052;-91
2022/10/26 13:50:45;;;;;;;27.45;4.32;;;;;;;15.14;100.00;99320.38;4922920;29;20060;-92
2022/10/26 13:53:36;;;;;;;27.25;4.97;;;;;;;14.97;100.00;99247.91;4920908;29;20376;-92
2022/10/26 13:56:23;;;;;;;;;;;;;;;15.61;100.00;99343.91;4908341;29;20056;-92
2022/10/26 13:58:58;;;;;;;19.98;4.20;;;;;;;15.67;100.00;99314.38;4909087;29;20430;-91
2022/10/26 14:01:27;;;;;;;19.40;4.90;;;;;;;15.87;100.00;99322.50;4908592;29;20099;-92
2022/10/26 14:03:54;;;;;;;19.20;4.57;;;;;;;15.70;100.00;99311.47;4918149;29;20649;-90
2022/10/26 14:06:36;;;;;;;18.02;4.20;;;;;;;15.72;100.00;99338.59;4900969;29;20060;-91
2022/10/26 14:09:10;;;;;;;22.80;4.45;;;;;;;15.55;100.00;99310.94;4916305;29;20103;-91
2022/10/26 14:11:53;;;;;;;28.73;5.63;;;;;;;15.44;100.00;99281.97;4914846;29;20676;-91
2022/10/26 14:14:24;;;;;;;30.50;5.95;;;;;;;15.56;100.00;99312.63;4916143;29;20122;-91
2022/10/26 14:16:53;;;;;;;23.83;4.85;;;;;;;15.68;100.00;99316.03;4900915;29;20048;-91
2022/10/26 14:19:27;;;;;;;34.20;6.65;;;;;;;15.74;100.00;99341.97;4907993;29;20048;-91
2022/10/26 14:21:55;;;;;;;19.27;5.22;;;;;;;15.86;100.00;99337.47;4905279;29;20056;-92
2022/10/26 14:24:28;;;;;;;25.67;5.90;;;;;;;15.41;100.00;99310.38;4916538;29;20044;-93
2022/10/26 14:27:23;;;;;;;25.08;5.25;;;;;;;15.60;100.00;99305.31;4910695;29;20205;-92
2022/10/26 14:29:52;;;;;;;20.52;4.53;;;;;;;15.53;100.00;99322.59;4911888;29;20044;-91
2022/10/26 14:32:42;;;;;;;27.23;5.78;;;;;;;15.38;100.00;99307.00;4902871;29;20084;-91
2022/10/26 14:35:13;;;;;;;39.40;6.22;;;;;;;15.41;100.00;99331.50;4917638;29;20060;-90
2022/10/26 14:37:55;;;;;;;23.25;6.05;;;;;;;15.55;100.00;99308.31;4916236;29;20060;-90
2022/10/26 14:40:26;;;;;;;28.58;6.18;;;;;;;15.61;100.00;99343.91;4913505;29;20048;-90
2022/10/26 14:42:58;;;;;;;28.33;5.68;;;;;;;15.60;100.00;99341.38;4916168;29;20112;-90
2022/10/26 14:45:37;;;;;;;27.25;5.40;;;;;;;15.54;100.00;99348.00;4899901;29;20152;-90
2022/10/26 14:48:22;;;;;;;25.73;5.13;;;;;;;15.51;100.00;99354.38;4904361;29;20450;-90
2022/10/26 14:51:17;;;;;;;27.27;4.65;;;;;;;15.52;100.00;99352.56;4916585;29;20477;-90
2022/10/26 14:53:50;;;;;;;28.60;4.68;;;;;;;15.62;100.00;99360.59;4925023;29;20071;-90
2022/10/26 14:56:29;;;;;;;19.45;4.68;;;;;;;14.71;100.00;99231.50;4920507;29;20075;-90
2022/10/26 14:58:57;;;;;;;25.25;5.20;;;;;;;15.35;100.00;99346.84;4917935;29;20059;-91
2022/10/26 15:01:27;;;;;;;21.50;4.43;;;;;;;15.53;100.00;99370.06;4915026;29;20047;-90
2022/10/26 15:04:05;;;;;;;20.77;4.72;;;;;;;15.47;100.00;99337.09;4919943;29;20079;-91
2022/10/26 15:06:40;;;;;;;35.50;5.60;;;;;;;15.57;100.00;99382.03;4909056;29;20591;-91
2022/10/26 15:09:31;;;;;;;24.65;5.25;;;;;;;15.50;100.00;99371.13;4918909;29;20101;-91